createdAt,value
2019-04-23T00:02:53.350Z,100970.94
2019-04-23T00:07:22.618Z,100970.02
2019-04-23T00:11:24.036Z,100965.83
2019-04-23T00:15:25.221Z,100966.38
2019-04-23T00:19:45.160Z,100966.56
2019-04-23T00:23:53.350Z,100963.14
2019-04-23T00:27:59.913Z,100954.69
2019-04-23T00:32:15.451Z,100951.77
2019-04-23T00:36:20.969Z,100947.55
2019-04-23T00:40:37.553Z,100950.66
2019-04-23T00:48:51.879Z,100940.44
2019-04-23T00:53:01.962Z,100937.87
2019-04-23T01:01:18.549Z,100947.00
2019-04-23T01:05:29.663Z,100952.50
2019-04-23T01:09:48.815Z,100963.83
2019-04-23T01:13:49.603Z,100964.05
2019-04-23T01:18:10.983Z,100964.96
2019-04-23T01:21:53.362Z,100962.03
2019-04-23T01:26:21.068Z,100953.00
2019-04-23T01:30:38.757Z,100953.44
2019-04-23T01:34:54.197Z,100944.27
2019-04-23T01:39:03.897Z,100947.15
2019-04-23T01:43:05.543Z,100942.30
2019-04-23T01:47:17.272Z,100946.88
2019-04-23T01:51:30.422Z,100944.53
2019-04-23T01:55:38.425Z,100947.60
2019-04-23T01:59:48.710Z,100965.69
2019-04-23T02:04:07.189Z,100965.92
2019-04-23T02:08:05.258Z,100975.20
2019-04-23T02:12:20.520Z,100976.95
2019-04-23T02:16:25.800Z,100965.50
2019-04-23T02:20:36.258Z,100964.14
2019-04-23T02:24:52.707Z,100970.18
2019-04-23T02:29:06.758Z,100962.88
2019-04-23T02:33:20.161Z,100959.22
2019-04-23T02:37:35.663Z,100959.06
2019-04-23T02:45:48.422Z,100969.23
2019-04-23T02:49:55.354Z,100975.56
2019-04-23T02:58:10.903Z,100983.73
2019-04-23T03:02:37.270Z,100989.34
2019-04-23T03:06:32.251Z,100993.50
2019-04-23T03:10:41.984Z,100998.70
2019-04-23T03:14:59.167Z,101003.03
2019-04-23T03:19:21.899Z,101015.19
2019-04-23T03:23:52.066Z,101027.36
2019-04-23T03:27:37.306Z,101043.87
2019-04-23T03:44:20.566Z,101045.60
2019-04-23T03:48:37.708Z,101055.65
2019-04-23T03:52:40.537Z,101056.34
2019-04-23T03:57:03.258Z,101069.36
2019-04-23T04:00:58.788Z,101071.88
2019-04-23T04:05:10.777Z,101070.64
2019-04-23T04:09:32.300Z,101068.91
2019-04-23T04:13:31.581Z,101069.28
2019-04-23T04:18:01.622Z,101075.13
2019-04-23T04:21:49.946Z,101072.88
2019-04-23T04:26:00.885Z,101077.79
2019-04-23T04:30:12.429Z,101073.36
2019-04-23T04:34:58.170Z,101076.38
2019-04-23T04:42:37.056Z,101074.63
2019-04-23T04:46:45.847Z,101086.33
2019-04-23T04:51:00.456Z,101088.66
2019-04-23T04:55:03.043Z,101092.05
2019-04-23T05:03:24.001Z,101101.58
2019-04-23T05:07:35.997Z,101095.97
2019-04-23T05:12:01.589Z,101093.58
2019-04-23T05:15:51.423Z,101090.48
2019-04-23T05:28:28.505Z,101087.63
2019-04-23T05:32:27.076Z,101084.72
2019-04-23T05:44:57.211Z,101084.64
2019-04-23T05:49:19.503Z,101092.92
2019-04-23T05:53:33.474Z,101095.13
2019-04-23T05:57:20.009Z,101092.36
2019-04-23T06:05:49.720Z,101091.15
2019-04-23T06:09:59.431Z,101095.17
2019-04-23T06:14:17.409Z,101091.77
2019-04-23T06:22:36.948Z,101098.55
2019-04-23T06:26:54.282Z,101102.67
2019-04-23T06:30:54.341Z,101100.01
2019-04-23T06:34:51.192Z,101114.59
2019-04-23T06:39:01.242Z,101119.92
2019-04-23T06:43:47.554Z,101115.84
2019-04-23T06:47:45.144Z,101111.50
2019-04-23T06:56:13.548Z,101116.27
2019-04-23T07:00:17.235Z,101116.46
2019-04-23T07:04:29.036Z,101125.24
2019-04-23T07:08:56.299Z,101128.47
2019-04-23T07:12:47.221Z,101126.00
2019-04-23T07:17:00.204Z,101129.25
2019-04-23T07:21:15.437Z,101134.81
2019-04-23T07:25:18.938Z,101144.94
2019-04-23T07:33:43.958Z,101158.46
2019-04-23T07:37:56.583Z,101164.12
2019-04-23T07:42:29.580Z,101171.74
2019-04-23T07:46:57.471Z,101179.08
2019-04-23T07:55:13.768Z,101182.11
2019-04-23T07:59:17.554Z,101182.18
2019-04-23T08:03:22.643Z,101179.71
2019-04-23T08:07:35.694Z,101183.83
2019-04-23T08:11:39.940Z,101189.52
2019-04-23T08:16:00.515Z,101195.23
2019-04-23T08:20:06.539Z,101198.80
2019-04-23T08:24:38.018Z,101192.61
2019-04-23T08:32:57.589Z,101200.80
2019-04-23T08:41:33.877Z,101202.00
2019-04-23T08:45:35.410Z,101208.31
2019-04-23T08:54:03.040Z,101211.22
2019-04-23T08:58:13.389Z,101206.84
2019-04-23T09:06:47.182Z,101205.02
2019-04-23T09:10:41.036Z,101191.41
2019-04-23T09:14:51.283Z,101186.48
2019-04-23T09:19:02.655Z,101195.70
2019-04-23T09:23:02.813Z,101188.76
2019-04-23T09:27:23.487Z,101192.43
2019-04-23T09:36:05.157Z,101201.86
2019-04-23T09:40:54.894Z,101198.70
2019-04-23T09:45:11.040Z,101191.20
2019-04-23T09:49:20.813Z,101192.59
2019-04-23T09:53:29.677Z,101191.58
2019-04-23T09:57:44.683Z,101183.58
2019-04-23T10:01:37.023Z,101178.80
2019-04-23T10:05:39.993Z,101178.59
2019-04-23T10:09:40.626Z,101174.17
2019-04-23T10:13:50.333Z,101178.45
2019-04-23T10:17:58.482Z,101171.44
2019-04-23T10:22:07.201Z,101171.09
2019-04-23T10:26:16.430Z,101159.19
2019-04-23T10:30:24.412Z,101166.59
2019-04-23T10:34:42.895Z,101155.75
2019-04-23T10:38:54.030Z,101161.41
2019-04-23T10:42:53.902Z,101149.14
2019-04-23T10:47:45.208Z,101153.62
2019-04-23T10:56:18.519Z,101158.81
2019-04-23T11:00:19.474Z,101165.95
2019-04-23T11:04:38.577Z,101170.38
2019-04-23T11:08:38.352Z,101181.21
2019-04-23T11:13:01.217Z,101182.89
2019-04-23T11:17:19.337Z,101182.83
2019-04-23T11:21:28.567Z,101178.84
2019-04-23T11:29:44.385Z,101172.30
2019-04-23T11:34:13.210Z,101169.63
2019-04-23T11:38:21.004Z,101165.85
2019-04-23T11:42:11.535Z,101155.27
2019-04-23T11:46:41.279Z,101143.14
2019-04-23T11:51:07.460Z,101161.02
2019-04-23T11:54:39.360Z,101171.03
2019-04-23T11:58:47.605Z,101180.78
2019-04-23T12:03:12.673Z,101177.72
2019-04-23T12:07:33.937Z,101170.69
2019-04-23T12:11:58.296Z,101157.34
2019-04-23T12:16:04.046Z,101171.24
2019-04-23T12:20:12.284Z,101175.59
2019-04-23T12:28:30.590Z,101144.55
2019-04-23T12:37:11.344Z,101125.06
2019-04-23T12:41:13.986Z,101142.66
2019-04-23T12:45:23.352Z,101142.88
2019-04-23T12:49:53.357Z,101126.32
2019-04-23T12:57:40.881Z,101110.02
2019-04-23T13:01:55.917Z,101109.10
2019-04-23T13:05:51.428Z,101094.74
2019-04-23T13:10:09.937Z,101097.98
2019-04-23T13:14:25.950Z,101086.22
2019-04-23T13:18:31.545Z,101089.66
2019-04-23T13:22:48.896Z,101096.48
2019-04-23T13:26:44.796Z,101113.38
2019-04-23T13:35:23.058Z,101102.42
2019-04-23T13:39:21.251Z,101102.00
2019-04-23T13:43:38.036Z,101109.98
2019-04-23T13:47:48.065Z,101117.71
2019-04-23T13:52:15.979Z,101117.59
2019-04-23T13:55:53.461Z,101124.30
2019-04-23T14:00:09.019Z,101122.62
2019-04-23T14:04:36.711Z,101124.67
2019-04-23T14:17:00.245Z,101112.55
2019-04-23T14:21:08.569Z,101114.11
2019-04-23T14:29:21.480Z,101129.58
2019-04-23T14:33:37.525Z,101118.20
2019-04-23T14:37:59.050Z,101113.22
2019-04-23T14:41:54.153Z,101110.23
2019-04-23T14:50:30.397Z,101117.45
2019-04-23T14:54:34.344Z,101124.11
2019-04-23T15:02:54.304Z,101112.83
2019-04-23T15:07:02.548Z,101109.98
2019-04-23T15:19:53.049Z,101098.75
2019-04-23T15:32:19.972Z,101090.20
2019-04-23T15:40:23.628Z,101062.95
2019-04-23T15:44:28.201Z,101052.03
2019-04-23T15:48:49.857Z,101057.37
2019-04-23T15:52:58.212Z,101045.79
2019-04-23T15:57:05.850Z,101052.57
2019-04-23T16:01:31.886Z,101044.26
2019-04-23T16:05:03.696Z,101042.61
2019-04-23T16:09:36.166Z,101044.25
2019-04-23T16:14:10.170Z,101042.48
2019-04-23T16:18:22.079Z,101038.95
2019-04-23T16:22:18.751Z,101054.94
2019-04-23T16:26:29.850Z,101071.98
2019-04-23T16:30:40.808Z,101071.11
2019-04-23T16:34:54.429Z,101067.64
2019-04-23T16:47:26.123Z,101074.20
2019-04-23T16:51:32.843Z,101080.95
2019-04-23T16:55:49.770Z,101068.97
2019-04-23T17:00:07.390Z,101067.69
2019-04-23T17:04:03.731Z,101068.47
2019-04-23T17:08:36.022Z,101065.56
2019-04-23T17:12:17.597Z,101071.17
2019-04-23T17:20:47.482Z,101084.48
2019-04-23T17:25:00.819Z,101088.17
2019-04-23T17:29:12.279Z,101090.20
2019-04-23T17:33:19.108Z,101083.66
2019-04-23T17:37:29.987Z,101090.33
2019-04-23T17:42:01.719Z,101081.02
2019-04-23T17:50:26.904Z,101085.84
2019-04-23T17:54:24.590Z,101100.63
2019-04-23T17:58:28.882Z,101111.44
2019-04-23T18:11:09.258Z,101122.30
2019-04-23T18:15:15.672Z,101117.11
2019-04-23T18:19:13.121Z,101114.34
2019-04-23T18:23:42.874Z,101105.84
2019-04-23T18:27:38.645Z,101111.44
2019-04-23T18:32:13.116Z,101107.39
2019-04-23T18:36:13.205Z,101114.92
2019-04-23T18:40:28.569Z,101112.02
2019-04-23T18:44:44.947Z,101113.84
2019-04-23T18:52:58.513Z,101124.50
2019-04-23T19:01:20.009Z,101111.42
2019-04-23T19:05:55.014Z,101114.44
2019-04-23T19:14:28.490Z,101113.11
2019-04-23T19:18:31.990Z,101109.95
2019-04-23T19:31:26.068Z,101134.81
2019-04-23T19:39:43.233Z,101125.95
2019-04-23T19:43:57.947Z,101122.20
2019-04-23T19:48:13.434Z,101115.30
2019-04-23T19:52:11.383Z,101126.79
2019-04-23T19:56:29.068Z,101131.70
2019-04-23T20:00:45.715Z,101117.55
2019-04-23T20:12:59.042Z,101141.94
2019-04-23T20:21:19.486Z,101159.86
2019-04-23T20:34:40.259Z,101142.53
2019-04-23T20:38:33.029Z,101142.28
2019-04-23T20:42:40.797Z,101139.86
2019-04-23T20:46:52.398Z,101142.53
2019-04-23T20:50:50.732Z,101138.86
2019-04-23T20:55:02.077Z,101140.11
2019-04-23T21:03:39.114Z,101138.16
2019-04-23T21:07:49.057Z,101131.50
2019-04-23T21:11:53.194Z,101114.28
2019-04-23T21:20:14.457Z,101096.98
2019-04-23T21:24:07.203Z,101098.66
2019-04-23T21:28:35.917Z,101092.50
2019-04-23T21:32:42.179Z,101095.28
2019-04-23T21:36:49.419Z,101081.36
2019-04-23T21:45:40.803Z,101058.37
2019-04-23T21:49:56.709Z,101042.02
2019-04-23T21:53:51.707Z,101034.14
2019-04-23T22:02:23.314Z,101050.95
2019-04-23T22:06:30.614Z,101038.97
2019-04-23T22:10:47.930Z,101031.84
2019-04-23T22:14:45.326Z,101028.58
2019-04-23T22:19:10.954Z,101007.00
2019-04-23T22:27:09.781Z,101020.34
2019-04-23T22:31:39.004Z,101031.84
2019-04-23T22:35:37.833Z,101038.83
2019-04-23T22:39:45.935Z,101040.05
2019-04-23T22:44:05.113Z,101040.67
2019-04-23T22:48:08.038Z,101045.41
2019-04-23T22:52:22.992Z,101053.02
2019-04-23T22:56:27.545Z,101058.48
2019-04-23T23:00:39.040Z,101058.45
2019-04-23T23:05:02.386Z,101064.02
2019-04-23T23:09:10.470Z,101070.32
2019-04-23T23:17:27.089Z,101080.25
2019-04-23T23:21:38.493Z,101065.97
2019-04-23T23:25:39.776Z,101045.73
2019-04-23T23:29:58.098Z,101035.94
2019-04-23T23:34:05.203Z,101035.31
2019-04-23T23:38:16.685Z,101050.81
2019-04-23T23:42:18.073Z,101049.83
2019-04-23T23:50:55.067Z,101039.56
2019-04-23T23:54:52.548Z,101033.28
2019-04-23T23:59:03.800Z,101040.40
